Time;durP1;ratioP1;P1;durP2;ratioP2;P2;SDS_P1;SDS_P2;PMS_P1;PMS_P2;Temp;Humidity;BMP_temperature;BMP_pressure;BME280_temperature;BME280_humidity;BME280_pressure;Samples;Min_cycle;Max_cycle;Signal;HPM_P1;HPM_P2
2022/03/22 00:00:34;;;;;;;21.88;12.55;;;5.80;45.60;;;;;;5092739;28;20562;-78
2022/03/22 00:03:01;;;;;;;23.13;12.27;;;5.70;45.70;;;;;;5092776;28;20062;-79
2022/03/22 00:05:27;;;;;;;21.88;12.60;;;5.80;45.80;;;;;;5092827;28;20048;-73
2022/03/22 00:07:53;;;;;;;19.92;12.40;;;5.70;46.00;;;;;;5092765;28;20481;-73
2022/03/22 00:10:19;;;;;;;22.33;12.75;;;5.80;45.90;;;;;;5096651;28;20028;-75
2022/03/22 00:12:45;;;;;;;22.85;12.90;;;5.80;45.70;;;;;;5096665;28;20099;-74
2022/03/22 00:15:11;;;;;;;22.33;12.25;;;5.70;46.00;;;;;;5096618;28;20099;-74
2022/03/22 00:17:37;;;;;;;25.75;13.70;;;5.70;46.20;;;;;;5096421;28;20044;-72
2022/03/22 00:20:05;;;;;;;24.05;13.73;;;5.70;46.30;;;;;;5096612;28;20557;-74
2022/03/22 00:22:30;;;;;;;26.65;13.77;;;5.60;46.40;;;;;;5096402;28;20097;-73
2022/03/22 00:24:56;;;;;;;22.10;13.80;;;5.50;46.80;;;;;;5096477;28;20032;-73
2022/03/22 00:27:22;;;;;;;20.63;12.70;;;5.40;47.20;;;;;;5096472;28;20024;-72
2022/03/22 00:29:48;;;;;;;23.77;13.13;;;5.40;47.20;;;;;;5096382;28;20028;-74
2022/03/22 00:32:15;;;;;;;24.90;14.13;;;5.30;47.20;;;;;;5095045;28;20085;-72
2022/03/22 00:34:44;;;;;;;25.63;13.68;;;5.30;47.50;;;;;;5096257;28;20016;-73
2022/03/22 00:37:17;;;;;;;21.13;12.80;;;5.30;47.50;;;;;;5096170;28;20030;-72
2022/03/22 00:39:44;;;;;;;27.10;14.15;;;5.10;47.80;;;;;;5096206;28;20024;-72
2022/03/22 00:42:11;;;;;;;24.00;13.40;;;5.10;48.10;;;;;;5096111;28;20422;-73
2022/03/22 00:44:38;;;;;;;19.00;13.13;;;5.00;48.20;;;;;;5096005;28;20020;-74
2022/03/22 00:47:08;;;;;;;23.10;13.25;;;5.10;48.30;;;;;;5096042;28;20030;-73
2022/03/22 00:49:36;;;;;;;20.92;12.45;;;5.10;48.20;;;;;;5096016;28;20024;-73
2022/03/22 00:52:04;;;;;;;22.67;12.38;;;5.10;48.30;;;;;;5095991;28;20388;-73
2022/03/22 00:54:32;;;;;;;22.50;13.32;;;5.20;48.30;;;;;;5095685;28;20024;-73
2022/03/22 00:56:57;;;;;;;21.02;12.55;;;5.20;48.40;;;;;;5094562;28;20379;-74
2022/03/22 01:02:08;;;;;;;20.90;12.48;;;5.20;48.30;;;;;;5095529;28;20096;-74
2022/03/22 01:04:35;;;;;;;23.27;12.77;;;5.20;48.20;;;;;;5095607;28;20387;-73
2022/03/22 01:07:01;;;;;;;22.35;13.65;;;5.10;48.30;;;;;;5095452;28;20369;-73
2022/03/22 01:09:28;;;;;;;20.58;12.85;;;5.10;48.30;;;;;;5095365;28;20020;-73
2022/03/22 01:11:54;;;;;;;19.80;12.57;;;5.10;48.40;;;;;;5095754;28;20028;-73
2022/03/22 01:14:19;;;;;;;21.45;13.45;;;5.10;48.40;;;;;;5095397;28;20487;-73
2022/03/22 01:16:45;;;;;;;22.88;12.15;;;5.00;48.60;;;;;;5095096;28;20405;-74
2022/03/22 01:19:11;;;;;;;19.23;12.30;;;5.00;48.60;;;;;;5095283;28;20127;-73
2022/03/22 01:21:37;;;;;;;21.23;13.18;;;5.00;48.60;;;;;;5094624;28;20058;-74
2022/03/22 01:24:06;;;;;;;22.42;13.38;;;4.90;48.90;;;;;;5095137;28;20032;-74
2022/03/22 01:26:32;;;;;;;21.83;12.45;;;4.90;49.20;;;;;;5095156;28;20052;-74
2022/03/22 01:28:57;;;;;;;26.58;14.52;;;4.70;49.40;;;;;;5093939;28;20074;-78
2022/03/22 01:31:25;;;;;;;25.27;14.18;;;4.60;49.80;;;;;;5095210;28;20070;-74
2022/03/22 01:33:51;;;;;;;20.92;13.70;;;4.60;50.00;;;;;;5095123;28;20035;-73
2022/03/22 01:36:17;;;;;;;26.10;13.85;;;4.50;50.20;;;;;;5095074;28;20016;-73
2022/03/22 01:38:43;;;;;;;23.25;13.30;;;4.40;50.40;;;;;;5095039;28;20032;-74
2022/03/22 01:41:08;;;;;;;23.05;13.07;;;4.40;50.70;;;;;;5095130;28;20028;-73
2022/03/22 01:43:34;;;;;;;24.52;13.57;;;4.40;50.90;;;;;;5095000;28;20032;-72
2022/03/22 01:46:00;;;;;;;24.65;13.05;;;4.40;50.90;;;;;;5094920;28;20028;-72
2022/03/22 01:48:25;;;;;;;19.33;12.40;;;4.50;50.90;;;;;;5094861;28;20071;-73
2022/03/22 01:50:51;;;;;;;22.45;13.55;;;4.50;50.90;;;;;;5094778;28;20512;-73
2022/03/22 01:53:17;;;;;;;19.92;12.45;;;4.60;50.80;;;;;;5094645;28;20024;-73
2022/03/22 01:55:43;;;;;;;23.73;14.32;;;4.60;50.60;;;;;;5094718;28;20021;-72
2022/03/22 01:58:08;;;;;;;21.35;13.35;;;4.60;50.50;;;;;;5094790;28;20503;-72
2022/03/22 02:00:34;;;;;;;21.33;13.38;;;4.50;50.60;;;;;;5094488;28;20461;-73
2022/03/22 02:05:56;;;;;;;22.98;13.63;;;4.50;50.70;;;;;;5094458;28;20460;-73
2022/03/22 02:08:29;;;;;;;24.20;14.18;;;4.40;50.90;;;;;;5094400;28;20392;-73
2022/03/22 02:10:58;;;;;;;20.17;12.73;;;4.30;51.30;;;;;;5094337;28;20016;-73
2022/03/22 02:13:24;;;;;;;23.60;14.00;;;4.20;51.40;;;;;;5094373;28;20103;-73
2022/03/22 02:15:54;;;;;;;21.73;13.02;;;4.30;51.40;;;;;;5095172;28;20138;-73
2022/03/22 02:18:19;;;;;;;21.55;14.32;;;4.20;51.70;;;;;;5094431;28;20514;-73
2022/03/22 02:20:46;;;;;;;26.60;14.55;;;4.20;51.70;;;;;;5094259;28;20036;-73
2022/03/22 02:23:19;;;;;;;25.15;14.05;;;4.20;51.80;;;;;;5094392;28;20016;-72
2022/03/22 02:25:46;;;;;;;26.25;14.25;;;4.20;51.70;;;;;;5093662;28;20031;-73
2022/03/22 02:28:12;;;;;;;26.02;13.70;;;4.20;51.80;;;;;;5093948;28;20028;-73
2022/03/22 02:30:38;;;;;;;23.10;14.13;;;4.20;51.80;;;;;;5094019;28;20085;-73
2022/03/22 02:33:04;;;;;;;24.98;14.35;;;4.30;51.80;;;;;;5093598;28;20032;-72
2022/03/22 02:35:30;;;;;;;23.10;13.65;;;4.20;51.70;;;;;;5093991;28;20073;-72
2022/03/22 02:37:57;;;;;;;25.13;15.00;;;4.20;51.80;;;;;;5093861;28;20410;-73
2022/03/22 02:40:24;;;;;;;27.33;14.88;;;4.20;52.00;;;;;;5093805;28;20028;-72
2022/03/22 02:42:50;;;;;;;24.50;14.10;;;4.10;52.20;;;;;;5093700;28;20036;-72
2022/03/22 02:45:18;;;;;;;22.80;14.60;;;4.20;52.20;;;;;;5093714;28;20032;-73
2022/03/22 02:47:44;;;;;;;25.20;14.65;;;4.20;52.20;;;;;;5093343;28;20091;-73
2022/03/22 02:50:10;;;;;;;24.67;14.48;;;4.20;52.10;;;;;;5093712;28;20137;-73
2022/03/22 02:52:37;;;;;;;22.80;14.07;;;4.20;52.00;;;;;;5093666;28;20468;-74
2022/03/22 02:55:06;;;;;;;23.65;14.55;;;4.20;52.00;;;;;;5093663;28;20023;-72
2022/03/22 02:57:32;;;;;;;29.50;15.00;;;4.00;52.30;;;;;;5093520;28;20023;-73
2022/03/22 02:59:57;;;;;;;23.33;13.75;;;4.00;52.70;;;;;;5098270;28;20028;-73
2022/03/22 03:02:23;;;;;;;23.67;14.90;;;4.00;53.10;;;;;;5093597;28;20027;-73
2022/03/22 03:04:49;;;;;;;26.20;14.85;;;3.90;53.60;;;;;;5093423;28;20078;-73
2022/03/22 03:07:14;;;;;;;28.60;15.00;;;3.80;54.40;;;;;;5093527;28;20020;-73
2022/03/22 03:09:40;;;;;;;24.13;13.82;;;3.70;55.00;;;;;;5093398;28;20028;-73
2022/03/22 03:12:06;;;;;;;25.90;14.32;;;3.60;55.40;;;;;;5093273;28;20020;-73
2022/03/22 03:14:40;;;;;;;23.85;14.10;;;3.50;55.60;;;;;;5093274;28;20412;-74
2022/03/22 03:17:10;;;;;;;23.77;14.05;;;3.60;55.50;;;;;;5093935;28;20044;-74
2022/03/22 03:19:37;;;;;;;25.75;15.13;;;3.70;55.20;;;;;;5095751;28;20074;-73
2022/03/22 03:22:03;;;;;;;24.50;13.82;;;3.70;55.00;;;;;;5093646;28;20073;-73
2022/03/22 03:24:29;;;;;;;25.13;14.75;;;3.70;54.90;;;;;;5092943;28;20017;-73
2022/03/22 03:26:54;;;;;;;24.73;14.07;;;3.80;54.60;;;;;;5093040;28;20020;-73
2022/03/22 03:29:20;;;;;;;24.33;15.07;;;3.90;54.50;;;;;;5093078;28;20465;-73
2022/03/22 03:31:47;;;;;;;26.08;15.68;;;3.80;54.20;;;;;;5092881;28;20099;-73
2022/03/22 03:34:12;;;;;;;27.73;15.20;;;3.80;54.30;;;;;;5092887;28;20357;-73
2022/03/22 03:36:38;;;;;;;25.42;14.80;;;3.80;54.40;;;;;;5092962;28;20047;-72
2022/03/22 03:39:04;;;;;;;26.10;15.02;;;3.80;54.50;;;;;;5093033;28;20028;-73
2022/03/22 03:47:11;;;;;;;27.50;15.43;;;3.80;54.50;;;;;;5093094;28;20088;-73
2022/03/22 03:49:39;;;;;;;25.92;14.85;;;3.70;54.50;;;;;;5092934;28;20047;-72
2022/03/22 03:52:10;;;;;;;25.85;14.43;;;3.60;54.70;;;;;;5092880;28;20024;-73
2022/03/22 03:54:36;;;;;;;23.92;14.20;;;3.60;55.00;;;;;;5092943;28;20031;-72
2022/03/22 03:57:02;;;;;;;27.20;15.55;;;3.50;55.30;;;;;;5092802;28;20483;-72
2022/03/22 03:59:28;;;;;;;25.10;14.80;;;3.50;55.60;;;;;;5092709;28;20028;-72
2022/03/22 04:01:53;;;;;;;29.80;15.77;;;3.50;55.60;;;;;;5092664;28;20532;-72
2022/03/22 04:04:19;;;;;;;26.35;15.18;;;3.50;55.80;;;;;;5092488;28;20064;-72
2022/03/22 04:06:47;;;;;;;25.83;14.75;;;3.50;55.60;;;;;;5092545;28;20040;-73
2022/03/22 04:09:15;;;;;;;28.63;14.30;;;3.40;55.50;;;;;;5092554;28;20081;-72
2022/03/22 04:11:42;;;;;;;27.75;16.05;;;3.40;55.70;;;;;;5092513;28;20081;-73
2022/03/22 04:14:08;;;;;;;25.95;14.80;;;3.50;55.60;;;;;;5092670;28;20456;-73
2022/03/22 04:16:34;;;;;;;27.92;15.60;;;3.50;55.50;;;;;;5092341;28;20028;-72
2022/03/22 04:19:00;;;;;;;28.02;15.25;;;3.40;55.50;;;;;;5092417;28;20103;-72
2022/03/22 04:21:26;;;;;;;25.92;14.68;;;3.40;55.90;;;;;;5092514;28;20483;-72
2022/03/22 04:23:51;;;;;;;25.83;15.68;;;3.40;56.20;;;;;;5092463;28;20107;-72
2022/03/22 04:26:17;;;;;;;29.10;14.93;;;3.30;56.60;;;;;;5092811;28;20106;-73
2022/03/22 04:34:11;;;;;;;28.38;15.73;;;3.30;56.70;;;;;;5092379;28;20036;-72
2022/03/22 04:36:37;;;;;;;25.90;14.60;;;3.20;57.00;;;;;;5092283;28;20032;-74
2022/03/22 04:39:03;;;;;;;29.00;15.55;;;3.10;57.60;;;;;;5092385;28;20081;-72
2022/03/22 04:41:28;;;;;;;29.85;15.57;;;3.00;58.20;;;;;;5092280;28;20381;-72
2022/03/22 04:43:54;;;;;;;26.55;15.10;;;3.10;58.30;;;;;;5092240;28;20103;-72
2022/03/22 04:46:19;;;;;;;30.80;15.70;;;3.20;58.00;;;;;;5092037;28;20028;-73
2022/03/22 04:48:45;;;;;;;32.13;15.70;;;3.20;57.60;;;;;;5091714;28;20484;-73
2022/03/22 04:56:44;;;;;;;29.40;15.02;;;3.20;57.60;;;;;;5097471;28;20038;-73
2022/03/22 04:59:22;;;;;;;29.13;15.85;;;3.20;57.60;;;;;;5098386;28;20020;-73
2022/03/22 05:01:48;;;;;;;29.45;15.02;;;3.20;58.00;;;;;;5095631;28;20024;-73
2022/03/22 05:04:13;;;;;;;25.48;15.20;;;3.10;58.20;;;;;;5095781;28;20487;-73
2022/03/22 05:06:39;;;;;;;30.00;15.48;;;3.10;58.50;;;;;;5095488;28;20028;-72
2022/03/22 05:09:06;;;;;;;29.58;15.82;;;3.10;58.60;;;;;;5095346;28;20123;-73
2022/03/22 05:11:32;;;;;;;33.70;16.85;;;3.10;58.30;;;;;;5095461;28;20028;-74
2022/03/22 05:13:59;;;;;;;24.58;15.27;;;3.20;58.10;;;;;;5095511;28;20491;-73
2022/03/22 05:16:24;;;;;;;30.90;16.75;;;3.20;58.10;;;;;;5095243;28;20074;-74
2022/03/22 05:18:51;;;;;;;30.00;16.92;;;3.20;58.00;;;;;;5095202;28;20060;-72
2022/03/22 05:21:17;;;;;;;33.10;17.65;;;3.20;58.10;;;;;;5095247;28;20043;-73
2022/03/22 05:23:46;;;;;;;32.38;17.85;;;3.10;58.30;;;;;;5095267;28;20028;-73
2022/03/22 05:26:13;;;;;;;30.88;17.17;;;3.10;59.00;;;;;;5095280;28;20468;-73
2022/03/22 05:28:40;;;;;;;27.00;14.88;;;3.00;59.20;;;;;;5095075;28;20435;-72
2022/03/22 05:31:08;;;;;;;30.00;16.50;;;3.00;59.80;;;;;;5095128;28;20154;-73
2022/03/22 05:33:33;;;;;;;32.65;16.83;;;3.00;59.80;;;;;;5094991;28;20035;-73
2022/03/22 05:35:59;;;;;;;23.30;14.27;;;3.00;60.00;;;;;;5094798;28;20032;-73
2022/03/22 05:38:25;;;;;;;29.02;16.17;;;3.00;60.00;;;;;;5094881;28;20035;-73
2022/03/22 05:40:51;;;;;;;32.63;18.13;;;3.10;60.20;;;;;;5094818;28;20460;-73
2022/03/22 05:43:17;;;;;;;33.90;16.90;;;3.10;59.40;;;;;;5094738;28;20173;-72
2022/03/22 05:45:48;;;;;;;29.15;16.30;;;3.10;59.00;;;;;;5094661;28;20504;-73
2022/03/22 05:48:21;;;;;;;29.95;15.27;;;3.10;59.00;;;;;;5094753;28;20039;-72
2022/03/22 05:50:46;;;;;;;28.63;15.80;;;3.20;58.80;;;;;;5095081;28;20016;-72
2022/03/22 05:53:13;;;;;;;35.47;17.42;;;3.20;58.80;;;;;;5094495;28;20463;-73
2022/03/22 05:55:40;;;;;;;30.02;17.20;;;3.20;58.70;;;;;;5094591;28;20103;-72
2022/03/22 05:58:06;;;;;;;36.78;18.90;;;3.20;58.60;;;;;;5094387;28;20462;-72
2022/03/22 06:00:32;;;;;;;37.60;18.85;;;3.30;58.40;;;;;;5094548;28;20472;-73
2022/03/22 06:02:58;;;;;;;29.40;17.27;;;3.30;58.40;;;;;;5094529;28;20028;-72
2022/03/22 06:05:24;;;;;;;34.08;17.23;;;3.40;58.10;;;;;;5094184;28;20024;-73
2022/03/22 06:07:50;;;;;;;36.53;17.70;;;3.50;57.70;;;;;;5093806;28;20048;-72
2022/03/22 06:10:15;;;;;;;36.13;17.95;;;3.60;57.50;;;;;;5093977;28;20024;-73
2022/03/22 06:12:45;;;;;;;37.72;19.20;;;3.60;57.30;;;;;;5094191;28;20055;-71
2022/03/22 06:15:19;;;;;;;30.67;17.08;;;3.70;57.20;;;;;;5093206;28;20020;-77
2022/03/22 06:17:52;;;;;;;33.65;17.25;;;3.70;56.60;;;;;;5092389;28;20484;-72
2022/03/22 06:20:19;;;;;;;37.67;18.63;;;3.80;56.40;;;;;;5093729;28;20456;-73
2022/03/22 06:22:45;;;;;;;31.98;17.13;;;3.90;56.40;;;;;;5093977;28;20020;-72
2022/03/22 06:25:12;;;;;;;32.97;16.85;;;3.90;56.30;;;;;;5094101;28;20107;-72
2022/03/22 06:27:38;;;;;;;29.35;15.98;;;4.00;56.00;;;;;;5093447;28;20484;-72
2022/03/22 06:30:08;;;;;;;28.30;16.88;;;4.10;55.70;;;;;;5092036;28;20059;-73
2022/03/22 06:32:51;;;;;;;29.98;17.80;;;4.20;55.50;;;;;;5093611;28;20051;-72
2022/03/22 06:35:19;;;;;;;33.97;17.98;;;4.20;54.90;;;;;;5091928;28;20067;-73
2022/03/22 06:37:46;;;;;;;28.25;16.52;;;4.20;54.80;;;;;;5093588;28;20388;-74
2022/03/22 06:40:13;;;;;;;32.78;17.48;;;4.30;54.70;;;;;;5093641;28;20016;-72
2022/03/22 06:42:40;;;;;;;34.13;17.38;;;4.40;54.30;;;;;;5093580;28;20031;-72
2022/03/22 06:45:06;;;;;;;37.33;19.73;;;4.50;53.90;;;;;;5093746;28;20031;-72
2022/03/22 06:47:35;;;;;;;44.83;22.05;;;4.40;55.90;;;;;;5093249;28;20024;-72
2022/03/22 06:50:00;;;;;;;37.58;19.58;;;4.40;56.00;;;;;;5093674;28;20083;-72
2022/03/22 06:52:27;;;;;;;36.65;18.52;;;4.30;56.30;;;;;;5093331;28;20093;-72
2022/03/22 06:54:53;;;;;;;39.10;19.35;;;4.30;57.00;;;;;;5092998;28;20026;-72
2022/03/22 06:57:19;;;;;;;40.58;19.38;;;4.40;57.50;;;;;;5092766;28;20047;-72
2022/03/22 06:59:44;;;;;;;32.25;19.08;;;4.50;57.00;;;;;;5092747;28;20504;-72
2022/03/22 07:02:10;;;;;;;28.67;17.17;;;4.60;56.20;;;;;;5092652;28;20031;-72
2022/03/22 07:04:36;;;;;;;27.50;15.98;;;4.80;55.40;;;;;;5092503;28;20510;-72
2022/03/22 07:07:02;;;;;;;34.58;19.55;;;4.90;55.70;;;;;;5092725;28;20103;-72
2022/03/22 07:09:28;;;;;;;27.70;16.77;;;4.90;55.90;;;;;;5092936;28;20036;-73
2022/03/22 07:11:55;;;;;;;30.73;16.00;;;5.00;55.30;;;;;;5092757;28;20039;-72
2022/03/22 07:14:23;;;;;;;31.05;18.25;;;5.10;54.90;;;;;;5092525;28;20107;-72
2022/03/22 07:16:49;;;;;;;28.67;17.13;;;5.30;54.50;;;;;;5092417;28;20044;-72
2022/03/22 07:19:22;;;;;;;33.25;17.77;;;5.50;53.70;;;;;;5092177;28;20020;-72
2022/03/22 07:21:49;;;;;;;27.27;16.42;;;5.60;52.90;;;;;;5093032;28;20035;-72
2022/03/22 07:24:18;;;;;;;32.30;17.58;;;5.70;52.40;;;;;;5092708;28;20016;-72
2022/03/22 07:26:43;;;;;;;29.08;16.52;;;5.80;52.20;;;;;;5092432;28;20519;-72
2022/03/22 07:29:09;;;;;;;29.13;16.45;;;6.00;51.90;;;;;;5092673;28;20153;-72
2022/03/22 07:31:38;;;;;;;29.33;16.85;;;6.10;51.80;;;;;;5092692;28;20107;-72
2022/03/22 07:34:15;;;;;;;27.92;16.35;;;6.20;51.30;;;;;;5092785;28;20056;-72
2022/03/22 07:36:44;;;;;;;26.13;15.57;;;6.40;50.90;;;;;;5092226;28;20016;-72
2022/03/22 07:39:11;;;;;;;33.17;16.90;;;6.60;50.50;;;;;;5092813;28;20029;-73
2022/03/22 07:41:38;;;;;;;25.10;16.27;;;6.70;49.70;;;;;;5092528;28;20024;-71
2022/03/22 07:44:05;;;;;;;30.55;17.55;;;6.90;49.30;;;;;;5092529;28;20028;-71
2022/03/22 07:46:30;;;;;;;31.77;16.27;;;6.90;48.90;;;;;;5092402;28;20492;-72
2022/03/22 07:52:58;;;;;;;33.55;18.23;;;7.00;49.10;;;;;;5092167;28;20062;-71
2022/03/22 07:54:32;;;;;;;28.80;17.10;;;7.20;48.70;;;;;;5092668;28;20077;-72
2022/03/22 07:56:57;;;;;;;31.83;17.20;;;7.40;48.60;;;;;;5092584;28;20020;-73
2022/03/22 07:59:27;;;;;;;27.17;17.25;;;7.50;48.20;;;;;;5092292;28;20097;-72
2022/03/22 08:01:53;;;;;;;23.98;15.48;;;7.70;47.60;;;;;;5091998;28;20028;-73
2022/03/22 08:04:19;;;;;;;24.10;12.45;;;7.90;46.90;;;;;;5092128;28;20028;-72
2022/03/22 08:06:45;;;;;;;27.60;14.35;;;8.30;65.10;;;;;;5091999;28;20076;-72
2022/03/22 08:09:11;;;;;;;26.63;15.40;;;8.60;67.50;;;;;;5092182;28;20036;-73
2022/03/22 08:11:36;;;;;;;28.17;16.70;;;8.80;56.40;;;;;;5092471;28;20379;-73
2022/03/22 08:14:04;;;;;;;38.08;15.25;;;9.00;50.60;;;;;;5092277;28;20525;-72
2022/03/22 08:16:31;;;;;;;28.52;15.07;;;9.20;57.20;;;;;;5091803;28;20064;-72
2022/03/22 08:18:56;;;;;;;23.58;13.65;;;9.70;55.20;;;;;;5092278;28;20112;-72
2022/03/22 08:21:22;;;;;;;24.05;15.05;;;10.10;52.00;;;;;;5092119;28;20093;-73
2022/03/22 08:23:47;;;;;;;25.25;15.82;;;10.50;47.70;;;;;;5092071;28;20024;-72
2022/03/22 08:26:16;;;;;;;33.03;15.48;;;10.80;45.80;;;;;;5091902;28;20094;-71
2022/03/22 08:28:46;;;;;;;24.58;15.82;;;11.10;45.70;;;;;;5091843;28;20042;-72
2022/03/22 08:31:11;;;;;;;29.95;16.45;;;11.40;44.20;;;;;;5095347;28;20103;-71
2022/03/22 08:33:37;;;;;;;26.80;15.43;;;11.60;42.40;;;;;;5095889;28;20056;-72
2022/03/22 08:36:03;;;;;;;22.02;14.70;;;11.90;43.20;;;;;;5096075;28;20421;-72
2022/03/22 08:38:28;;;;;;;28.05;16.13;;;12.10;41.60;;;;;;5096032;28;20505;-73
2022/03/22 08:40:57;;;;;;;28.50;15.48;;;12.30;39.90;;;;;;5094572;28;20360;-73
2022/03/22 08:43:26;;;;;;;22.60;16.10;;;12.20;38.10;;;;;;5094533;28;20081;-73
2022/03/22 08:45:53;;;;;;;24.05;15.60;;;12.10;37.30;;;;;;5096191;28;20028;-73
2022/03/22 08:48:19;;;;;;;26.23;16.20;;;12.00;37.10;;;;;;5095411;28;20388;-73
2022/03/22 08:50:48;;;;;;;28.90;17.10;;;11.80;36.50;;;;;;5095967;28;20024;-71
2022/03/22 08:53:16;;;;;;;28.52;16.65;;;11.50;36.20;;;;;;5095843;28;20554;-72
2022/03/22 08:55:42;;;;;;;31.35;17.23;;;11.20;36.10;;;;;;5095704;28;20028;-73
2022/03/22 08:58:08;;;;;;;23.20;15.40;;;11.20;36.40;;;;;;5100164;28;20020;-72
2022/03/22 09:00:35;;;;;;;25.67;16.20;;;11.30;36.90;;;;;;5095940;28;20027;-72
2022/03/22 09:03:03;;;;;;;22.70;15.07;;;11.50;37.50;;;;;;5095610;28;20047;-72
2022/03/22 09:08:13;;;;;;;25.75;16.83;;;11.90;35.90;;;;;;5095628;28;20109;-72
2022/03/22 09:10:39;;;;;;;29.08;16.75;;;12.10;35.00;;;;;;5095390;28;20028;-75
2022/03/22 09:13:06;;;;;;;25.88;16.75;;;12.30;34.90;;;;;;5095462;28;20099;-73
2022/03/22 09:15:36;;;;;;;32.67;17.92;;;12.60;35.70;;;;;;5095476;28;20019;-73
2022/03/22 09:18:02;;;;;;;27.58;16.92;;;12.70;35.90;;;;;;5095027;28;20032;-72
2022/03/22 09:20:32;;;;;;;29.70;17.65;;;12.60;33.70;;;;;;5095082;28;20020;-76
2022/03/22 09:22:59;;;;;;;26.80;16.08;;;12.60;34.10;;;;;;5095061;28;20036;-72
2022/03/22 09:25:25;;;;;;;28.38;15.75;;;12.60;34.70;;;;;;5094836;28;20433;-73
2022/03/22 09:27:50;;;;;;;26.77;16.13;;;12.90;35.90;;;;;;5093417;28;20075;-73
2022/03/22 09:30:17;;;;;;;26.63;16.42;;;13.20;35.20;;;;;;5094720;28;20024;-72
2022/03/22 09:32:42;;;;;;;29.85;16.85;;;13.40;34.50;;;;;;5094909;28;20016;-73
2022/03/22 09:35:10;;;;;;;26.98;16.48;;;13.50;33.50;;;;;;5094930;28;20028;-73
2022/03/22 09:37:41;;;;;;;23.13;16.20;;;13.70;33.30;;;;;;5094731;28;20052;-72
2022/03/22 09:40:08;;;;;;;28.80;17.52;;;13.80;32.90;;;;;;5094886;28;20440;-72
2022/03/22 09:42:34;;;;;;;26.67;16.45;;;13.80;33.30;;;;;;5093815;28;20020;-73
2022/03/22 09:45:00;;;;;;;30.00;16.63;;;14.00;32.80;;;;;;5094588;28;20119;-72
2022/03/22 09:47:27;;;;;;;25.88;16.88;;;14.20;32.60;;;;;;5094659;28;20034;-73
2022/03/22 09:49:54;;;;;;;29.05;17.92;;;14.40;32.90;;;;;;5094516;28;20032;-73
2022/03/22 09:52:20;;;;;;;27.83;17.65;;;14.60;31.70;;;;;;5094677;28;20102;-73
2022/03/22 09:54:48;;;;;;;26.35;17.30;;;14.30;31.50;;;;;;5094578;28;20020;-73
2022/03/22 09:57:14;;;;;;;26.83;16.88;;;14.30;31.50;;;;;;5094590;28;20024;-72
2022/03/22 09:59:40;;;;;;;27.45;17.25;;;14.30;32.90;;;;;;5093197;28;20364;-74
2022/03/22 10:02:06;;;;;;;30.45;17.52;;;14.40;32.20;;;;;;5094273;28;20032;-73
2022/03/22 10:04:37;;;;;;;31.65;17.60;;;14.50;32.00;;;;;;5094500;28;20020;-74
2022/03/22 10:07:05;;;;;;;25.10;17.15;;;14.90;31.80;;;;;;5094348;28;20095;-76
2022/03/22 10:09:33;;;;;;;27.55;16.83;;;15.10;32.40;;;;;;5093909;28;20039;-73
2022/03/22 10:11:59;;;;;;;29.30;18.10;;;15.30;30.80;;;;;;5094489;28;20081;-73
2022/03/22 10:14:39;;;;;;;31.67;17.48;;;15.30;29.70;;;;;;5094382;28;20020;-72
2022/03/22 10:17:13;;;;;;;26.85;17.35;;;15.30;30.10;;;;;;5093521;28;20043;-73
2022/03/22 10:19:51;;;;;;;27.55;17.48;;;15.20;28.80;;;;;;5093866;28;20089;-72
2022/03/22 10:22:23;;;;;;;26.50;17.40;;;15.20;29.20;;;;;;5094152;28;20013;-72
2022/03/22 10:24:52;;;;;;;27.05;17.65;;;15.50;29.20;;;;;;5093829;28;20027;-71
2022/03/22 10:27:33;;;;;;;27.10;16.15;;;15.60;28.20;;;;;;5093801;28;20028;-72
2022/03/22 10:30:01;;;;;;;26.10;17.33;;;15.80;29.00;;;;;;5093732;28;20035;-72
2022/03/22 10:32:34;;;;;;;29.30;18.15;;;15.90;28.10;;;;;;5093694;28;20031;-70
2022/03/22 10:35:17;;;;;;;27.10;17.98;;;16.20;27.70;;;;;;5093514;28;20038;-70
2022/03/22 10:37:45;;;;;;;24.50;17.52;;;16.00;27.70;;;;;;5093811;28;20027;-69
2022/03/22 10:40:20;;;;;;;33.20;18.40;;;16.10;27.80;;;;;;5093640;28;20416;-70
2022/03/22 10:42:46;;;;;;;29.00;17.77;;;16.40;27.20;;;;;;5093778;28;20103;-69
2022/03/22 10:45:12;;;;;;;25.98;17.20;;;16.30;26.60;;;;;;5093281;28;20024;-70
2022/03/22 10:47:38;;;;;;;24.88;17.00;;;16.30;26.80;;;;;;5093389;28;20097;-70
2022/03/22 10:50:07;;;;;;;24.30;18.00;;;16.60;26.50;;;;;;5093137;28;20165;-70
2022/03/22 10:52:32;;;;;;;25.92;17.85;;;16.80;25.70;;;;;;5093001;28;20028;-70
2022/03/22 10:54:59;;;;;;;27.45;17.35;;;16.70;25.30;;;;;;5093070;28;20450;-70
2022/03/22 10:57:37;;;;;;;27.73;17.77;;;17.00;25.00;;;;;;5093213;28;20028;-71
2022/03/22 11:00:08;;;;;;;28.35;17.83;;;17.30;25.10;;;;;;5091576;28;20081;-71
2022/03/22 11:02:37;;;;;;;30.17;18.35;;;17.60;24.20;;;;;;5092896;28;20055;-73
2022/03/22 11:05:04;;;;;;;27.63;17.30;;;17.70;23.50;;;;;;5092884;28;20036;-71
2022/03/22 11:07:35;;;;;;;29.05;18.35;;;18.00;23.50;;;;;;5092620;28;20039;-71
2022/03/22 11:10:01;;;;;;;25.42;16.85;;;18.20;23.70;;;;;;5091362;28;20036;-71
2022/03/22 11:12:30;;;;;;;24.80;17.83;;;18.70;24.00;;;;;;5092641;28;20395;-71
2022/03/22 11:14:56;;;;;;;26.35;17.80;;;19.00;23.10;;;;;;5093233;28;20024;-70
2022/03/22 11:17:24;;;;;;;26.65;17.33;;;18.60;23.10;;;;;;5092407;28;20044;-71
2022/03/22 11:19:49;;;;;;;27.27;16.13;;;18.00;22.20;;;;;;5092955;28;20098;-71
2022/03/22 11:22:17;;;;;;;30.05;16.60;;;18.20;21.80;;;;;;5092702;28;20026;-71
2022/03/22 11:24:42;;;;;;;31.73;16.45;;;18.40;21.50;;;;;;5092840;28;20055;-71
2022/03/22 11:27:08;;;;;;;25.20;14.85;;;18.40;20.80;;;;;;5092943;28;20052;-71
2022/03/22 11:29:36;;;;;;;27.08;14.82;;;18.40;20.40;;;;;;5092639;28;20077;-71
2022/03/22 11:34:50;;;;;;;25.17;16.08;;;18.50;21.80;;;;;;5092762;28;20112;-71
2022/03/22 11:37:30;;;;;;;30.02;17.48;;;18.20;21.50;;;;;;5092264;28;20031;-73
2022/03/22 11:42:54;;;;;;;27.45;16.73;;;18.60;21.50;;;;;;5092487;28;20085;-71
2022/03/22 11:45:20;;;;;;;26.98;17.73;;;18.60;21.50;;;;;;5092196;28;20051;-71
2022/03/22 11:47:49;;;;;;;22.23;16.67;;;18.40;21.50;;;;;;5091930;28;20047;-72
2022/03/22 11:50:18;;;;;;;30.20;17.27;;;18.70;21.80;;;;;;5092072;28;20048;-71
2022/03/22 11:52:45;;;;;;;26.42;17.08;;;19.20;22.00;;;;;;5091700;28;20031;-71
2022/03/22 11:55:11;;;;;;;27.75;16.55;;;19.70;21.50;;;;;;5091852;28;20041;-72
2022/03/22 11:57:47;;;;;;;24.67;17.83;;;20.20;20.70;;;;;;5091331;28;20325;-71
2022/03/22 12:00:15;;;;;;;23.27;15.82;;;20.50;19.70;;;;;;5091886;28;20051;-71
2022/03/22 12:02:43;;;;;;;24.00;16.15;;;20.80;19.00;;;;;;5092113;28;20021;-71
2022/03/22 12:05:09;;;;;;;29.23;16.58;;;21.10;18.70;;;;;;5093977;28;20040;-72
2022/03/22 12:07:41;;;;;;;21.30;15.77;;;21.40;17.70;;;;;;5096179;28;20030;-71
2022/03/22 12:10:11;;;;;;;27.30;16.73;;;21.70;17.30;;;;;;5096564;28;20032;-71
2022/03/22 12:12:39;;;;;;;26.08;17.20;;;21.70;16.80;;;;;;5096067;28;20044;-71
2022/03/22 12:15:08;;;;;;;25.83;16.08;;;21.70;16.60;;;;;;5096602;28;20020;-71
2022/03/22 12:17:34;;;;;;;23.02;16.20;;;21.70;16.80;;;;;;5096219;28;20051;-71
2022/03/22 12:20:02;;;;;;;28.38;16.40;;;21.50;16.70;;;;;;5096413;28;20028;-71
2022/03/22 12:22:29;;;;;;;24.80;16.85;;;21.10;16.80;;;;;;5096477;28;20020;-72
2022/03/22 12:24:59;;;;;;;24.58;15.20;;;21.40;17.30;;;;;;5096175;28;20097;-73
2022/03/22 12:27:25;;;;;;;23.80;15.93;;;21.80;17.20;;;;;;5096413;28;20244;-71
2022/03/22 12:29:53;;;;;;;25.98;16.20;;;22.10;16.50;;;;;;5096156;28;20032;-72
2022/03/22 12:32:21;;;;;;;22.67;16.58;;;22.40;16.40;;;;;;5095389;28;20113;-72
2022/03/22 12:34:48;;;;;;;20.80;15.10;;;22.70;16.40;;;;;;5094562;28;20529;-70
2022/03/22 12:37:16;;;;;;;24.10;16.35;;;23.00;16.00;;;;;;5096129;28;20020;-71
2022/03/22 12:39:44;;;;;;;24.02;16.20;;;23.30;15.70;;;;;;5095366;28;20039;-73
2022/03/22 12:42:11;;;;;;;24.02;16.05;;;23.30;14.70;;;;;;5094583;28;20031;-71
2022/03/22 12:44:37;;;;;;;28.05;16.15;;;22.60;14.60;;;;;;5095871;28;20059;-70
2022/03/22 12:47:07;;;;;;;22.35;15.50;;;21.80;15.50;;;;;;5095840;28;20384;-71
2022/03/22 12:49:35;;;;;;;19.75;14.13;;;21.90;16.30;;;;;;5095546;28;20109;-71
2022/03/22 12:52:02;;;;;;;24.77;15.85;;;22.10;16.00;;;;;;5095933;28;20472;-72
2022/03/22 12:54:32;;;;;;;26.92;16.60;;;22.10;15.80;;;;;;5095669;28;20084;-71
2022/03/22 12:57:00;;;;;;;23.30;15.23;;;21.90;16.10;;;;;;5095324;28;20012;-71
2022/03/22 12:59:26;;;;;;;30.30;16.02;;;22.20;16.50;;;;;;5095894;28;20025;-71
2022/03/22 13:01:57;;;;;;;20.27;15.65;;;22.50;15.90;;;;;;5095487;28;20028;-71
2022/03/22 13:04:32;;;;;;;24.63;16.75;;;22.70;15.50;;;;;;5094965;28;20054;-70
2022/03/22 13:06:59;;;;;;;22.48;16.73;;;22.90;15.40;;;;;;5095624;28;20036;-72